Friday, January 19, 2018, 4:01 AM GMT
Back to Local

CYQB, Quebec, Que

Location: , , Canada Lat: 46.8
Local Time: 4:01 AM GMT ( 4:01 GMT) Lon: -71.383
Time Zone: GMT Elev: 229 ft

Show me the last for .
Show Decoded

2018-01-19 03:00 METAR CYQB 190300Z 27003KT 7SM SCT010 BKN040 M08/M09 A2987 RMK SC3SC3 SLP121 =
2018-01-19 02:00 METAR CYQB 190200Z 24008KT 7SM SCT045 M08/M09 A2987 RMK SC4 SLP121 =
2018-01-19 01:58 METAR CYQB 190158Z 24009KT 7SM SCT045 M08/M09 A2986 RMK SC4 SLP119 =
2018-01-19 01:00 METAR CYQB 190100Z 24009KT 6SM -SN SCT043 M06/M08 A2985 RMK SC4 SLP114 =
2018-01-19 00:00 METAR CYQB 190000Z 24007KT 6SM -SN FEW036 BKN046 M05/M07 A2986 RMK SC2SC5 SLP118
                 =
2018-01-18 23:00 METAR CYQB 182300Z 24007KT 6SM -SN FEW020 BKN045 M05/M07 A2986 RMK SC1SC6 SLP117
                 =
2018-01-18 22:00 METAR CYQB 182200Z 24009KT 6SM -SN FEW022 BKN045 M05/M07 A2985 RMK SC2SC5 SLP114
                 =
2018-01-18 21:00 METAR CYQB 182100Z 24011KT 5SM -SN BKN020 OVC042 M05/M07 A2984 RMK SC5SC3 SLP113
                 =
2018-01-18 20:00 METAR CYQB 182000Z 24010KT 4SM -SN BKN016 OVC026 M04/M07 A2983 RMK SC5SC3 SLP109
                 =
2018-01-18 19:00 METAR CYQB 181900Z 24010KT 9SM -SN BKN017 OVC027 M04/M08 A2983 RMK SC5SC3 SLP108
                 =
2018-01-18 18:00 METAR CYQB 181800Z 25012KT 10SM -SN BKN022 BKN056 M05/M08 A2982 RMK SC5SC2
                 SLP106 =
2018-01-18 17:00 METAR CYQB 181700Z 26013G19KT 10SM -SN DRSN SCT019 BKN060 M05/M08 A2983 RMK
                 SC4SC2 /S01/ SLP107 =
2018-01-18 16:00 METAR CYQB 181600Z 26016KT 8SM -SN DRSN SCT020 BKN055 OVC062 M05/M08 A2984 RMK
                 SC3SC3SC2 SLP113 =
2018-01-18 15:00 METAR CYQB 181500Z 24013KT 8SM -SN SCT016 BKN065 M06/M08 A2985 RMK SC4SC3 SLP115
                 =
2018-01-18 14:00 METAR CYQB 181400Z 24013KT 4SM -SN DRSN BKN016 OVC070 M06/M08 A2984 RMK
                 SN2SC4AC2 SLP113 =
2018-01-18 13:52 METAR CYQB 181352Z 24013KT 4SM -SN BKN017 OVC070 M06/M08 A2985 RMK SN3SC3AC2
                 SLP115 =
2018-01-18 13:20 METAR CYQB 181320Z 24012G17KT 1 1/2SM -SN DRSN BKN018 BKN038 M07/M08 A2984 RMK
                 SN3SC2SC2 VIS VRB 1-2 SLP113 =
2018-01-18 13:00 METAR CYQB 181300Z 24012KT 1SM R06/P6000FT/D -SN VV016 M07/M08 A2984 RMK SN8
                 SLP112 =
2018-01-18 12:48 METAR CYQB 181248Z 24012KT 1 1/2SM -SN VV015 M07/M08 A2984 RMK SN8 SLP113 =
2018-01-18 12:00 METAR CYQB 181200Z 24010G16KT 1SM R06/P6000FT/N -SN VV014 M07/M09 A2985 RMK SN8
                 SLP114 =
2018-01-18 11:30 METAR CYQB 181130Z 24010G16KT 1 1/2SM -SN VV014 M07/M09 A2985 RMK SN8 VIS VRB
                 1-2 SLP114 =
2018-01-18 11:20 METAR CYQB 181120Z 24012KT 1SM R06/P6000FT/D -SN VV014 M07/M09 A2984 RMK SN8
                 SLP113 =
2018-01-18 11:00 METAR CYQB 181100Z 24010G17KT 5SM -SN OVC014 M07/M09 A2985 RMK SC8 SLP115 =
2018-01-18 10:00 METAR CYQB 181000Z 24009KT 6SM -SN SCT013 OVC015 M07/M09 A2986 RMK SC4SC4 SLP117
                 =
2018-01-18 09:00 METAR CYQB 180900Z 24011KT 8SM -SN DRSN FEW012 OVC017 M07/M10 A2987 RMK SC1SC7
                 SLP122 =
2018-01-18 08:00 METAR CYQB 180800Z 24012G19KT 8SM -SN DRSN OVC018 M07/M10 A2990 RMK SC8 SLP131 =
2018-01-18 07:00 METAR CYQB 180700Z 23010KT 8SM -SN BKN018 M07/M10 A2991 RMK SC7 SLP137 =
2018-01-18 06:00 METAR CYQB 180600Z 23011KT 7SM -SN OVC018 M08/M11 A2992 RMK SC8 SLP141 =
2018-01-18 05:20 METAR CYQB 180520Z 23008KT 7SM -SN BKN021 M08/M11 A2995 RMK SC7 SLP148 =
2018-01-18 05:00 METAR CYQB 180500Z 23008KT 7SM FEW013 BKN024 M08/M11 A2996 RMK SC2SC5 INTMT -SN
                 SLP152 =
2018-01-18 04:53 METAR CYQB 180453Z 23009KT 7SM FEW013 BKN024 M08/M11 A2996 RMK SC2SC5 SLP153 =

Support USWX by starting your Amazon purchase here.